createdAt,value
2022-11-10T00:02:09.509Z,98865.31
2022-11-10T00:04:54.690Z,98853.53
2022-11-10T00:07:40.355Z,98866.31
2022-11-10T00:10:25.768Z,98863.94
2022-11-10T00:13:11.032Z,98871.22
2022-11-10T00:16:21.069Z,98881.34
2022-11-10T00:19:06.261Z,98868.63
2022-11-10T00:21:51.542Z,98874.06
2022-11-10T00:24:36.937Z,98883.91
2022-11-10T00:27:22.375Z,98886.78
2022-11-10T00:30:07.866Z,98890.25
2022-11-10T00:32:52.864Z,98895.25
2022-11-10T00:35:38.171Z,98887.16
2022-11-10T00:38:23.452Z,98891.84
2022-11-10T00:41:08.721Z,98885.88
2022-11-10T00:43:54.460Z,98892.84
2022-11-10T00:46:39.464Z,98884.19
2022-11-10T00:49:24.810Z,98887.69
2022-11-10T00:52:10.357Z,98877.22
2022-11-10T00:54:55.550Z,98882.09
2022-11-10T00:57:40.867Z,98909.28
2022-11-10T01:00:26.015Z,98912.50
2022-11-10T01:03:16.642Z,98890.66
2022-11-10T01:06:06.334Z,98909.38
2022-11-10T01:08:51.641Z,98901.81
2022-11-10T01:11:36.929Z,98918.59
2022-11-10T01:14:22.283Z,98904.94
2022-11-10T01:17:07.894Z,98903.94
2022-11-10T01:19:53.204Z,98913.78
2022-11-10T01:22:38.752Z,98913.25
2022-11-10T01:25:23.670Z,98915.91
2022-11-10T01:28:08.935Z,98920.59
2022-11-10T01:31:11.708Z,98912.03
2022-11-10T01:33:59.209Z,98904.19
2022-11-10T01:36:44.521Z,98888.81
2022-11-10T01:39:29.755Z,98899.97
2022-11-10T01:42:15.120Z,98903.06
2022-11-10T01:45:24.942Z,98916.34
2022-11-10T01:48:16.510Z,98899.13
2022-11-10T01:51:08.513Z,98906.31
2022-11-10T01:54:01.362Z,98906.59
2022-11-10T01:56:52.073Z,98896.81
2022-11-10T01:59:43.122Z,98896.44
2022-11-10T02:03:15.651Z,98882.69
2022-11-10T02:06:01.641Z,98888.50
2022-11-10T02:08:47.628Z,98884.53
2022-11-10T02:11:34.479Z,98885.38
2022-11-10T02:14:19.681Z,98894.03
2022-11-10T02:17:05.025Z,98895.66
2022-11-10T02:19:52.624Z,98888.75
2022-11-10T02:22:37.877Z,98887.38
2022-11-10T02:25:25.508Z,98862.72
2022-11-10T02:28:10.598Z,98872.66
2022-11-10T02:30:55.936Z,98872.09
2022-11-10T02:33:41.343Z,98873.19
2022-11-10T02:36:26.705Z,98879.81
2022-11-10T02:39:11.837Z,98882.94
2022-11-10T02:41:57.230Z,98873.50
2022-11-10T02:44:42.961Z,98875.19
2022-11-10T02:47:27.986Z,98865.22
2022-11-10T02:50:13.261Z,98876.72
2022-11-10T02:52:58.461Z,98877.38
2022-11-10T02:55:43.614Z,98873.53
2022-11-10T02:58:29.089Z,98863.28
2022-11-10T03:01:14.370Z,98868.06
2022-11-10T03:03:59.784Z,98864.88
2022-11-10T03:06:45.358Z,98861.41
2022-11-10T03:09:30.504Z,98854.69
2022-11-10T03:12:16.061Z,98849.31
2022-11-10T03:15:01.045Z,98861.94
2022-11-10T03:17:46.315Z,98852.50
2022-11-10T03:20:31.483Z,98856.06
2022-11-10T03:23:18.674Z,98861.00
2022-11-10T03:26:05.398Z,98870.75
2022-11-10T03:28:50.807Z,98874.13
2022-11-10T03:31:35.868Z,98878.25
2022-11-10T03:34:21.009Z,98875.59
2022-11-10T03:37:06.218Z,98869.44
2022-11-10T03:39:51.460Z,98869.91
2022-11-10T03:42:36.655Z,98868.66
2022-11-10T03:45:21.992Z,98861.88
2022-11-10T03:48:07.201Z,98857.78
2022-11-10T03:50:52.667Z,98848.50
2022-11-10T03:53:37.737Z,98859.66
2022-11-10T03:56:23.033Z,98853.69
2022-11-10T03:59:08.318Z,98863.38
2022-11-10T04:01:53.727Z,98849.56
2022-11-10T04:04:57.700Z,98839.84
2022-11-10T04:08:01.487Z,98854.50
2022-11-10T04:10:47.000Z,98843.81
2022-11-10T04:13:50.897Z,98847.75
2022-11-10T04:16:36.297Z,98860.56
2022-11-10T04:19:21.648Z,98860.81
2022-11-10T04:22:06.923Z,98878.56
2022-11-10T04:24:52.144Z,98878.75
2022-11-10T04:27:39.073Z,98869.25
2022-11-10T04:30:24.287Z,98863.25
2022-11-10T04:33:09.469Z,98846.91
2022-11-10T04:35:54.990Z,98848.53
2022-11-10T04:38:40.776Z,98852.25
2022-11-10T04:41:27.575Z,98852.63
2022-11-10T04:44:12.823Z,98848.13
2022-11-10T04:46:58.068Z,98846.31
2022-11-10T04:49:43.188Z,98837.88
2022-11-10T04:52:28.874Z,98830.06
2022-11-10T04:55:14.109Z,98848.22
2022-11-10T04:57:59.405Z,98851.72
2022-11-10T05:00:44.940Z,98839.31
2022-11-10T05:03:30.283Z,98852.69
2022-11-10T05:06:15.857Z,98857.63
2022-11-10T05:09:00.910Z,98883.38
2022-11-10T05:11:46.154Z,98871.25
2022-11-10T05:14:31.741Z,98878.47
2022-11-10T05:17:17.469Z,98886.06
2022-11-10T05:20:02.943Z,98876.97
2022-11-10T05:23:09.590Z,98874.53
2022-11-10T05:25:54.947Z,98876.81
2022-11-10T05:28:42.027Z,98863.81
2022-11-10T05:31:26.874Z,98858.84
2022-11-10T05:34:12.256Z,98840.69
2022-11-10T05:36:57.560Z,98867.53
2022-11-10T05:39:42.721Z,98866.72
2022-11-10T05:42:27.993Z,98880.38
2022-11-10T05:45:14.682Z,98894.78
2022-11-10T05:47:59.934Z,98899.78
2022-11-10T05:50:45.327Z,98895.66
2022-11-10T05:53:30.557Z,98909.28
2022-11-10T05:56:16.250Z,98880.75
2022-11-10T05:59:01.289Z,98882.81
2022-11-10T06:01:46.560Z,98891.09
2022-11-10T06:04:31.802Z,98895.44
2022-11-10T06:07:17.186Z,98884.88
2022-11-10T06:10:02.411Z,98879.56
2022-11-10T06:12:47.686Z,98880.59
2022-11-10T06:15:33.247Z,98876.28
2022-11-10T06:18:18.871Z,98883.34
2022-11-10T06:21:04.047Z,98888.72
2022-11-10T06:23:49.208Z,98887.09
2022-11-10T06:26:34.687Z,98873.88
2022-11-10T06:29:25.543Z,98874.72
2022-11-10T06:32:12.306Z,98874.22
2022-11-10T06:35:00.490Z,98873.38
2022-11-10T06:37:46.459Z,98879.19
2022-11-10T06:40:32.995Z,98893.63
2022-11-10T06:43:18.104Z,98891.72
2022-11-10T06:46:03.611Z,98901.59
2022-11-10T06:48:48.475Z,98893.63
2022-11-10T06:51:33.922Z,98891.31
2022-11-10T07:06:25.930Z,98893.13
2022-11-10T07:10:06.610Z,98889.84
2022-11-10T07:12:59.829Z,98892.09
2022-11-10T07:15:44.859Z,98898.06
2022-11-10T07:18:30.386Z,98903.81
2022-11-10T07:21:15.532Z,98904.44
2022-11-10T07:24:00.810Z,98900.28
2022-11-10T07:26:46.017Z,98891.88
2022-11-10T07:29:31.302Z,98879.72
2022-11-10T07:32:16.643Z,98890.63
2022-11-10T07:35:01.726Z,98882.78
2022-11-10T07:37:46.916Z,98893.53
2022-11-10T07:40:33.046Z,98870.44
2022-11-10T07:43:18.458Z,98849.44
2022-11-10T07:46:04.020Z,98861.78
2022-11-10T07:48:49.349Z,98871.31
2022-11-10T07:51:34.490Z,98897.13
2022-11-10T07:54:20.035Z,98888.91
2022-11-10T07:57:04.872Z,98887.22
2022-11-10T07:59:52.879Z,98876.78
2022-11-10T08:02:40.718Z,98891.59
2022-11-10T08:05:25.968Z,98890.53
2022-11-10T08:08:12.061Z,98913.88
2022-11-10T08:10:57.862Z,98897.38
2022-11-10T08:13:43.397Z,98891.00
2022-11-10T08:16:28.776Z,98898.22
2022-11-10T08:19:13.947Z,98921.53
2022-11-10T08:21:59.317Z,98929.19
2022-11-10T08:24:44.543Z,98911.41
2022-11-10T08:27:29.741Z,98922.16
2022-11-10T08:30:15.308Z,98939.75
2022-11-10T08:33:01.848Z,98938.53
2022-11-10T08:35:49.132Z,98949.47
2022-11-10T08:38:34.417Z,98926.56
2022-11-10T08:41:19.543Z,98902.41
2022-11-10T08:44:08.171Z,98915.00
2022-11-10T08:46:56.105Z,98913.16
2022-11-10T08:49:41.531Z,98919.13
2022-11-10T08:52:26.894Z,98923.88
2022-11-10T08:55:12.090Z,98902.03
2022-11-10T08:58:02.101Z,98901.16
2022-11-10T09:00:47.878Z,98922.44
2022-11-10T09:03:33.117Z,98929.69
2022-11-10T09:06:18.424Z,98920.59
2022-11-10T09:09:03.798Z,98927.63
2022-11-10T09:11:49.057Z,98923.53
2022-11-10T09:14:34.420Z,98934.69
2022-11-10T09:17:19.587Z,98934.28
2022-11-10T09:20:06.811Z,98935.31
2022-11-10T09:22:52.103Z,98933.47
2022-11-10T09:25:38.364Z,98970.03
2022-11-10T09:28:24.498Z,98983.88
2022-11-10T09:31:09.640Z,98985.56
2022-11-10T09:33:54.701Z,98991.31
2022-11-10T09:36:40.446Z,98982.47
2022-11-10T09:39:25.358Z,98951.28
2022-11-10T09:42:38.765Z,98960.78
2022-11-10T09:45:37.831Z,98988.69
2022-11-10T09:48:41.975Z,98983.09
2022-11-10T09:51:42.763Z,98949.22
2022-11-10T09:54:49.059Z,98969.88
2022-11-10T09:57:34.195Z,98997.78
2022-11-10T10:00:19.721Z,99014.31
2022-11-10T10:03:06.357Z,99000.06
2022-11-10T10:06:05.241Z,98996.34
2022-11-10T10:09:04.841Z,98995.94
2022-11-10T10:11:53.134Z,98985.19
2022-11-10T10:14:46.530Z,98982.50
2022-11-10T10:17:53.958Z,98999.63
2022-11-10T10:20:58.039Z,99006.25
2022-11-10T10:24:10.039Z,99009.78
2022-11-10T10:27:00.740Z,99011.44
2022-11-10T10:29:49.249Z,99019.50
2022-11-10T10:32:34.478Z,99014.13
2022-11-10T10:35:19.802Z,99016.38
2022-11-10T10:38:16.075Z,99034.38
2022-11-10T10:41:12.953Z,99016.19
2022-11-10T10:44:01.392Z,99008.75
2022-11-10T10:46:55.308Z,99023.44
2022-11-10T10:49:40.293Z,99015.81
2022-11-10T10:52:26.819Z,99030.06
2022-11-10T10:55:14.161Z,99033.38
2022-11-10T10:58:06.368Z,99017.44
2022-11-10T11:01:18.316Z,99016.66
2022-11-10T11:04:27.043Z,99016.88
2022-11-10T11:07:24.365Z,99021.19
2022-11-10T11:10:34.390Z,99018.28
2022-11-10T11:13:27.368Z,99009.81
2022-11-10T11:16:12.796Z,99007.72
2022-11-10T11:18:58.862Z,99008.34
2022-11-10T11:21:49.993Z,99011.00
2022-11-10T11:24:57.208Z,98989.88
2022-11-10T11:28:20.844Z,99001.66
2022-11-10T11:31:30.622Z,99001.47
2022-11-10T11:34:25.674Z,99032.06
2022-11-10T11:37:55.000Z,99051.13
2022-11-10T11:40:58.123Z,99058.78
2022-11-10T11:43:58.501Z,99078.84
2022-11-10T11:46:49.499Z,99067.88
2022-11-10T11:50:01.492Z,99047.38
2022-11-10T11:52:49.322Z,99066.41
2022-11-10T11:56:03.685Z,99069.75
2022-11-10T11:59:13.725Z,99067.84
2022-11-10T12:02:02.769Z,99058.13
2022-11-10T12:05:19.973Z,99043.63
2022-11-10T12:08:11.332Z,99023.50
2022-11-10T12:11:10.460Z,99034.50
2022-11-10T12:14:04.786Z,99044.41
2022-11-10T12:17:02.657Z,99044.66
2022-11-10T12:20:01.990Z,99069.13
2022-11-10T12:22:53.018Z,99055.44
2022-11-10T12:25:53.803Z,99057.75
2022-11-10T12:28:47.614Z,99052.56
2022-11-10T12:31:35.567Z,99048.44
2022-11-10T12:34:38.881Z,99057.91
2022-11-10T12:37:41.050Z,99045.06
2022-11-10T12:40:55.126Z,99062.91
2022-11-10T12:43:55.611Z,99061.03
2022-11-10T12:46:46.985Z,99058.34
2022-11-10T12:49:41.243Z,99058.75
2022-11-10T12:52:43.523Z,99047.13
2022-11-10T12:55:52.798Z,99051.91
2022-11-10T12:58:37.787Z,99055.00
2022-11-10T13:01:23.337Z,99050.19
2022-11-10T13:04:08.493Z,99062.78
2022-11-10T13:07:00.771Z,99080.34
2022-11-10T13:09:46.380Z,99072.50
2022-11-10T13:12:31.575Z,99058.41
2022-11-10T13:15:35.466Z,99047.63
2022-11-10T13:18:32.704Z,99045.50
2022-11-10T13:21:18.297Z,99042.75
2022-11-10T13:24:03.627Z,99038.56
2022-11-10T13:26:50.752Z,99019.47
2022-11-10T13:29:48.108Z,99034.75
2022-11-10T13:51:04.493Z,99053.97
2022-11-10T13:54:17.535Z,99042.72
2022-11-10T14:15:23.162Z,99050.81
2022-11-10T14:18:39.664Z,99055.41
2022-11-10T14:21:33.862Z,99048.59
2022-11-10T14:24:25.902Z,99046.97
2022-11-10T14:27:20.635Z,99037.88
2022-11-10T14:30:15.017Z,99023.34
2022-11-10T14:33:11.516Z,99016.31
2022-11-10T14:36:02.898Z,99011.53
2022-11-10T14:38:48.764Z,99013.00
2022-11-10T14:41:34.396Z,99025.44
2022-11-10T14:44:25.991Z,99024.63
2022-11-10T14:47:31.327Z,99034.97
2022-11-10T14:50:24.983Z,99046.56
2022-11-10T14:53:23.155Z,99040.81
2022-11-10T14:56:17.039Z,99059.88
2022-11-10T14:59:06.146Z,99044.13
2022-11-10T15:02:00.518Z,99037.69
2022-11-10T15:04:47.642Z,99047.44
2022-11-10T15:07:32.973Z,99038.34
2022-11-10T15:10:25.504Z,99036.31
2022-11-10T15:13:13.722Z,99027.16
2022-11-10T15:16:21.460Z,99045.41
2022-11-10T15:19:29.807Z,99031.75
2022-11-10T15:22:33.892Z,99050.84
2022-11-10T15:25:22.669Z,99029.50
2022-11-10T15:28:19.758Z,99040.09
2022-11-10T15:31:09.804Z,99038.03
2022-11-10T15:34:01.011Z,99038.03
2022-11-10T15:36:46.354Z,99045.91
2022-11-10T15:39:31.639Z,99036.78
2022-11-10T15:42:23.084Z,99048.38
2022-11-10T15:45:08.733Z,99050.06
2022-11-10T15:47:53.577Z,99032.41
2022-11-10T15:50:40.135Z,99026.00
2022-11-10T15:53:30.897Z,99017.31
2022-11-10T15:56:21.696Z,99015.63
2022-11-10T15:59:06.903Z,99021.22
2022-11-10T16:01:52.701Z,99027.63
2022-11-10T16:04:38.235Z,99018.09
2022-11-10T16:07:23.672Z,99038.63
2022-11-10T16:10:09.128Z,99057.88
2022-11-10T16:12:55.059Z,99053.72
2022-11-10T16:15:42.157Z,99042.13
2022-11-10T16:18:31.017Z,99069.06
2022-11-10T16:21:19.965Z,99061.63
2022-11-10T16:24:05.107Z,99068.47
2022-11-10T16:26:50.412Z,99071.16
2022-11-10T16:29:36.518Z,99086.69
2022-11-10T16:32:21.842Z,99077.38
2022-11-10T16:35:13.160Z,99094.59
2022-11-10T16:37:58.278Z,99100.56
2022-11-10T16:40:43.699Z,99087.75
2022-11-10T16:43:30.960Z,99098.13
2022-11-10T16:46:28.467Z,99103.72
2022-11-10T16:49:39.643Z,99106.44
2022-11-10T16:52:26.318Z,99112.81
2022-11-10T16:55:13.871Z,99106.00
2022-11-10T16:57:59.325Z,99116.78
2022-11-10T17:00:47.267Z,99110.34
2022-11-10T17:03:36.735Z,99100.41
2022-11-10T17:06:24.804Z,99094.41
2022-11-10T17:09:28.837Z,99089.25
2022-11-10T17:12:14.877Z,99087.38
2022-11-10T17:15:00.350Z,99087.81
2022-11-10T17:17:48.483Z,99091.31
2022-11-10T17:20:37.908Z,99085.31
2022-11-10T17:23:25.609Z,99088.22
2022-11-10T17:26:17.655Z,99093.41
2022-11-10T17:29:03.191Z,99095.66
2022-11-10T17:31:50.323Z,99091.09
2022-11-10T17:34:35.485Z,99090.47
2022-11-10T17:37:20.714Z,99086.97
2022-11-10T17:40:27.479Z,99083.03
2022-11-10T17:43:13.402Z,99091.06
2022-11-10T17:45:58.441Z,99068.75
2022-11-10T17:48:43.976Z,99087.56
2022-11-10T17:51:31.964Z,99102.66
2022-11-10T17:54:17.627Z,99090.66
2022-11-10T17:57:04.479Z,99083.25
2022-11-10T17:59:49.819Z,99083.03
2022-11-10T18:02:35.119Z,99086.34
2022-11-10T18:05:20.601Z,99090.47
2022-11-10T18:08:05.642Z,99096.06
2022-11-10T18:10:52.465Z,99112.44
2022-11-10T18:13:39.154Z,99099.81
2022-11-10T18:16:24.635Z,99098.75
2022-11-10T18:19:10.603Z,99079.72
2022-11-10T18:21:55.899Z,99086.97
2022-11-10T18:24:42.534Z,99090.09
2022-11-10T18:27:30.576Z,99112.22
2022-11-10T18:30:17.044Z,99123.00
2022-11-10T18:33:03.361Z,99111.81
2022-11-10T18:35:48.716Z,99113.66
2022-11-10T18:38:33.994Z,99109.75
2022-11-10T18:41:37.709Z,99109.50
2022-11-10T18:44:22.889Z,99138.28
2022-11-10T18:47:11.770Z,99124.22
2022-11-10T18:49:56.719Z,99121.31
2022-11-10T18:52:42.016Z,99123.38
2022-11-10T18:55:27.246Z,99108.28
2022-11-10T18:58:12.514Z,99098.97
2022-11-10T19:01:09.448Z,99077.88
2022-11-10T19:03:54.888Z,99075.81
2022-11-10T19:06:40.667Z,99091.94
2022-11-10T19:09:26.052Z,99103.94
2022-11-10T19:12:11.954Z,99096.06
2022-11-10T19:14:57.184Z,99083.19
2022-11-10T19:17:42.450Z,99089.41
2022-11-10T19:20:27.805Z,99090.19
2022-11-10T19:23:12.883Z,99112.56
2022-11-10T19:26:05.862Z,99117.94
2022-11-10T19:28:53.461Z,99113.81
2022-11-10T19:31:38.671Z,99124.34
2022-11-10T19:34:23.949Z,99132.19
2022-11-10T19:37:09.190Z,99134.69
2022-11-10T19:39:54.338Z,99160.56
2022-11-10T19:42:39.697Z,99153.13
2022-11-10T19:45:24.915Z,99157.94
2022-11-10T19:48:10.185Z,99171.81
2022-11-10T19:50:56.619Z,99172.41
2022-11-10T19:53:43.401Z,99182.56
2022-11-10T19:56:32.144Z,99178.44
2022-11-10T19:59:19.309Z,99178.44
2022-11-10T20:02:04.636Z,99180.47
2022-11-10T20:05:19.064Z,99174.03
2022-11-10T20:08:12.059Z,99170.72
2022-11-10T20:11:21.447Z,99173.00
2022-11-10T20:14:07.014Z,99199.50
2022-11-10T20:16:53.433Z,99174.25
2022-11-10T20:19:41.253Z,99208.03
2022-11-10T20:22:26.918Z,99201.84
2022-11-10T20:25:12.289Z,99200.34
2022-11-10T20:27:58.864Z,99176.50
2022-11-10T20:30:44.487Z,99197.44
2022-11-10T20:33:31.261Z,99208.22
2022-11-10T20:36:36.881Z,99212.78
2022-11-10T20:39:22.384Z,99200.75
2022-11-10T20:42:07.617Z,99204.47
2022-11-10T20:44:52.954Z,99210.66
2022-11-10T20:47:38.264Z,99249.66
2022-11-10T20:50:24.637Z,99252.56
2022-11-10T20:53:10.090Z,99248.84
2022-11-10T20:55:57.920Z,99254.41
2022-11-10T20:58:43.091Z,99268.50
2022-11-10T21:01:28.590Z,99274.50
2022-11-10T21:04:13.857Z,99275.13
2022-11-10T21:06:59.073Z,99303.53
2022-11-10T21:09:44.185Z,99290.69
2022-11-10T21:12:50.881Z,99274.50
2022-11-10T21:15:40.080Z,99283.84
2022-11-10T21:18:28.536Z,99282.38
2022-11-10T21:21:34.457Z,99284.66
2022-11-10T21:24:20.033Z,99289.59
2022-11-10T21:27:05.508Z,99293.56
2022-11-10T21:29:50.702Z,99300.19
2022-11-10T21:32:35.996Z,99317.19
2022-11-10T21:35:21.754Z,99320.28
2022-11-10T21:38:07.353Z,99314.84
2022-11-10T21:40:53.055Z,99309.88
2022-11-10T21:43:38.863Z,99296.84
2022-11-10T21:46:24.602Z,99325.72
2022-11-10T21:49:09.915Z,99300.19
2022-11-10T21:51:55.153Z,99310.34
2022-11-10T21:54:40.471Z,99297.69
2022-11-10T21:57:25.724Z,99304.75
2022-11-10T22:00:11.020Z,99316.38
2022-11-10T22:03:01.047Z,99305.78
2022-11-10T22:05:46.083Z,99319.06
2022-11-10T22:08:32.037Z,99336.91
2022-11-10T22:11:38.020Z,99324.69
2022-11-10T22:14:41.703Z,99319.28
2022-11-10T22:17:45.403Z,99337.13
2022-11-10T22:20:30.574Z,99330.72
2022-11-10T22:23:15.868Z,99321.38
2022-11-10T22:26:01.037Z,99343.34
2022-11-10T22:28:46.816Z,99338.56
2022-11-10T22:31:33.808Z,99357.44
2022-11-10T22:34:20.175Z,99338.78
2022-11-10T22:37:05.529Z,99359.13
2022-11-10T22:40:09.245Z,99352.47
2022-11-10T22:43:12.980Z,99354.75
2022-11-10T22:45:58.358Z,99362.63
2022-11-10T22:48:43.503Z,99363.91
2022-11-10T22:51:30.707Z,99363.03
2022-11-10T22:54:20.961Z,99359.75
2022-11-10T22:57:06.410Z,99362.22
2022-11-10T22:59:51.645Z,99369.91
2022-11-10T23:02:36.883Z,99368.44
2022-11-10T23:05:22.155Z,99369.50
2022-11-10T23:08:07.513Z,99385.22
2022-11-10T23:11:04.606Z,99379.44
2022-11-10T23:13:50.695Z,99383.38
2022-11-10T23:16:36.006Z,99382.53
2022-11-10T23:19:21.290Z,99376.13
2022-11-10T23:22:06.655Z,99389.78
2022-11-10T23:24:57.056Z,99404.94
2022-11-10T23:27:42.812Z,99390.63
2022-11-10T23:30:28.333Z,99414.66
2022-11-10T23:33:13.715Z,99412.19
2022-11-10T23:35:58.877Z,99423.19
2022-11-10T23:38:45.814Z,99420.91
2022-11-10T23:41:31.415Z,99423.59
2022-11-10T23:44:16.717Z,99429.63
2022-11-10T23:47:02.001Z,99427.31
2022-11-10T23:49:47.522Z,99443.69
2022-11-10T23:52:35.194Z,99437.91
2022-11-10T23:55:20.213Z,99444.94
2022-11-10T23:58:05.640Z,99441.63
